sensor_id;sensor_type;location;lat;lon;timestamp;P1;durP1;ratioP1;P2;durP2;ratioP2
56233;SDS011;42141;53.240;6.580;2022-11-20T00:01:11;18.27;;;10.60;;
56233;SDS011;42141;53.240;6.580;2022-11-20T00:03:40;15.68;;;10.07;;
56233;SDS011;42141;53.240;6.580;2022-11-20T00:06:07;17.98;;;10.32;;
56233;SDS011;42141;53.240;6.580;2022-11-20T00:08:35;13.55;;;8.73;;
56233;SDS011;42141;53.240;6.580;2022-11-20T00:11:05;17.27;;;9.80;;
56233;SDS011;42141;53.240;6.580;2022-11-20T00:13:32;17.88;;;9.25;;
56233;SDS011;42141;53.240;6.580;2022-11-20T00:15:59;16.23;;;9.60;;
56233;SDS011;42141;53.240;6.580;2022-11-20T00:18:26;15.13;;;9.57;;
56233;SDS011;42141;53.240;6.580;2022-11-20T00:20:52;19.23;;;9.98;;
56233;SDS011;42141;53.240;6.580;2022-11-20T00:23:18;14.90;;;8.80;;
56233;SDS011;42141;53.240;6.580;2022-11-20T00:25:44;15.43;;;9.13;;
56233;SDS011;42141;53.240;6.580;2022-11-20T00:28:10;16.58;;;9.02;;
56233;SDS011;42141;53.240;6.580;2022-11-20T00:30:36;13.98;;;8.55;;
56233;SDS011;42141;53.240;6.580;2022-11-20T00:33:02;13.98;;;8.40;;
56233;SDS011;42141;53.240;6.580;2022-11-20T00:35:28;14.30;;;9.00;;
56233;SDS011;42141;53.240;6.580;2022-11-20T00:37:53;16.85;;;9.05;;
56233;SDS011;42141;53.240;6.580;2022-11-20T00:40:19;14.90;;;8.23;;
56233;SDS011;42141;53.240;6.580;2022-11-20T00:42:44;12.63;;;8.45;;
56233;SDS011;42141;53.240;6.580;2022-11-20T00:45:10;13.85;;;8.07;;
56233;SDS011;42141;53.240;6.580;2022-11-20T00:47:36;13.23;;;7.57;;
56233;SDS011;42141;53.240;6.580;2022-11-20T00:50:01;11.05;;;7.30;;
56233;SDS011;42141;53.240;6.580;2022-11-20T00:52:27;13.98;;;8.27;;
56233;SDS011;42141;53.240;6.580;2022-11-20T00:54:53;13.30;;;8.05;;
56233;SDS011;42141;53.240;6.580;2022-11-20T00:57:18;15.20;;;8.30;;
56233;SDS011;42141;53.240;6.580;2022-11-20T00:59:44;16.10;;;8.30;;
56233;SDS011;42141;53.240;6.580;2022-11-20T01:02:10;11.07;;;7.22;;
56233;SDS011;42141;53.240;6.580;2022-11-20T01:04:35;12.85;;;7.78;;
56233;SDS011;42141;53.240;6.580;2022-11-20T01:07:01;12.65;;;7.50;;
56233;SDS011;42141;53.240;6.580;2022-11-20T01:09:27;12.07;;;7.32;;
56233;SDS011;42141;53.240;6.580;2022-11-20T01:11:52;13.77;;;7.38;;
56233;SDS011;42141;53.240;6.580;2022-11-20T01:14:19;18.60;;;7.60;;
56233;SDS011;42141;53.240;6.580;2022-11-20T01:16:46;10.75;;;6.95;;
56233;SDS011;42141;53.240;6.580;2022-11-20T01:19:15;12.30;;;7.35;;
56233;SDS011;42141;53.240;6.580;2022-11-20T01:21:44;16.40;;;8.10;;
56233;SDS011;42141;53.240;6.580;2022-11-20T01:24:12;13.25;;;7.05;;
56233;SDS011;42141;53.240;6.580;2022-11-20T01:26:40;14.68;;;8.20;;
56233;SDS011;42141;53.240;6.580;2022-11-20T01:29:07;12.52;;;7.35;;
56233;SDS011;42141;53.240;6.580;2022-11-20T01:31:37;11.70;;;7.25;;
56233;SDS011;42141;53.240;6.580;2022-11-20T01:34:04;11.15;;;7.35;;
56233;SDS011;42141;53.240;6.580;2022-11-20T01:36:41;13.60;;;7.57;;
56233;SDS011;42141;53.240;6.580;2022-11-20T01:39:12;13.95;;;7.25;;
56233;SDS011;42141;53.240;6.580;2022-11-20T01:41:40;11.88;;;7.15;;
56233;SDS011;42141;53.240;6.580;2022-11-20T01:52:49;13.65;;;7.22;;
56233;SDS011;42141;53.240;6.580;2022-11-20T01:55:22;11.55;;;7.18;;
56233;SDS011;42141;53.240;6.580;2022-11-20T01:57:51;14.60;;;7.75;;
56233;SDS011;42141;53.240;6.580;2022-11-20T02:00:17;13.32;;;7.65;;
56233;SDS011;42141;53.240;6.580;2022-11-20T02:03:26;12.43;;;7.82;;
56233;SDS011;42141;53.240;6.580;2022-11-20T02:05:40;12.77;;;6.95;;
56233;SDS011;42141;53.240;6.580;2022-11-20T02:08:21;12.57;;;7.13;;
56233;SDS011;42141;53.240;6.580;2022-11-20T02:10:48;13.20;;;7.18;;
56233;SDS011;42141;53.240;6.580;2022-11-20T02:13:14;10.68;;;6.82;;
56233;SDS011;42141;53.240;6.580;2022-11-20T02:15:58;14.68;;;7.93;;
56233;SDS011;42141;53.240;6.580;2022-11-20T02:18:24;13.48;;;7.40;;
56233;SDS011;42141;53.240;6.580;2022-11-20T02:20:53;12.32;;;7.13;;
56233;SDS011;42141;53.240;6.580;2022-11-20T02:26:24;12.57;;;7.05;;
56233;SDS011;42141;53.240;6.580;2022-11-20T02:28:52;10.55;;;6.47;;
56233;SDS011;42141;53.240;6.580;2022-11-20T02:31:19;10.90;;;7.30;;
56233;SDS011;42141;53.240;6.580;2022-11-20T02:33:45;10.95;;;6.75;;
56233;SDS011;42141;53.240;6.580;2022-11-20T02:36:11;10.40;;;6.13;;
56233;SDS011;42141;53.240;6.580;2022-11-20T02:38:40;10.55;;;6.43;;
56233;SDS011;42141;53.240;6.580;2022-11-20T02:41:08;9.90;;;6.32;;
56233;SDS011;42141;53.240;6.580;2022-11-20T02:43:33;11.45;;;6.47;;
56233;SDS011;42141;53.240;6.580;2022-11-20T02:45:59;10.27;;;6.25;;
56233;SDS011;42141;53.240;6.580;2022-11-20T02:48:25;10.65;;;6.07;;
56233;SDS011;42141;53.240;6.580;2022-11-20T02:50:50;12.93;;;6.88;;
56233;SDS011;42141;53.240;6.580;2022-11-20T02:53:16;12.52;;;6.80;;
56233;SDS011;42141;53.240;6.580;2022-11-20T02:55:41;13.52;;;7.20;;
56233;SDS011;42141;53.240;6.580;2022-11-20T02:58:07;10.05;;;6.25;;
56233;SDS011;42141;53.240;6.580;2022-11-20T03:00:33;8.52;;;5.97;;
56233;SDS011;42141;53.240;6.580;2022-11-20T03:03:00;10.95;;;7.30;;
56233;SDS011;42141;53.240;6.580;2022-11-20T03:05:26;13.95;;;6.90;;
56233;SDS011;42141;53.240;6.580;2022-11-20T03:07:52;12.23;;;7.10;;
56233;SDS011;42141;53.240;6.580;2022-11-20T03:10:17;11.75;;;6.78;;
56233;SDS011;42141;53.240;6.580;2022-11-20T03:12:43;11.43;;;6.80;;
56233;SDS011;42141;53.240;6.580;2022-11-20T03:15:09;11.20;;;6.43;;
56233;SDS011;42141;53.240;6.580;2022-11-20T03:17:35;11.88;;;6.82;;
56233;SDS011;42141;53.240;6.580;2022-11-20T03:20:00;14.75;;;6.95;;
56233;SDS011;42141;53.240;6.580;2022-11-20T03:22:28;12.95;;;7.40;;
56233;SDS011;42141;53.240;6.580;2022-11-20T03:24:55;11.43;;;7.22;;
56233;SDS011;42141;53.240;6.580;2022-11-20T03:27:21;12.57;;;7.18;;
56233;SDS011;42141;53.240;6.580;2022-11-20T03:29:47;10.63;;;6.80;;
56233;SDS011;42141;53.240;6.580;2022-11-20T03:32:13;11.10;;;7.00;;
56233;SDS011;42141;53.240;6.580;2022-11-20T03:34:38;14.77;;;6.55;;
56233;SDS011;42141;53.240;6.580;2022-11-20T03:37:04;11.13;;;6.68;;
56233;SDS011;42141;53.240;6.580;2022-11-20T03:39:30;11.45;;;6.13;;
56233;SDS011;42141;53.240;6.580;2022-11-20T03:41:55;9.25;;;5.78;;
56233;SDS011;42141;53.240;6.580;2022-11-20T03:44:21;13.07;;;6.90;;
56233;SDS011;42141;53.240;6.580;2022-11-20T03:46:47;10.70;;;6.47;;
56233;SDS011;42141;53.240;6.580;2022-11-20T03:49:13;11.77;;;6.70;;
56233;SDS011;42141;53.240;6.580;2022-11-20T03:51:38;12.68;;;6.80;;
56233;SDS011;42141;53.240;6.580;2022-11-20T03:54:07;10.43;;;6.70;;
56233;SDS011;42141;53.240;6.580;2022-11-20T03:56:35;12.73;;;6.25;;
56233;SDS011;42141;53.240;6.580;2022-11-20T03:59:02;9.95;;;6.18;;
56233;SDS011;42141;53.240;6.580;2022-11-20T04:01:30;11.07;;;7.15;;
56233;SDS011;42141;53.240;6.580;2022-11-20T04:03:57;14.05;;;6.97;;
56233;SDS011;42141;53.240;6.580;2022-11-20T04:06:25;11.18;;;6.35;;
56233;SDS011;42141;53.240;6.580;2022-11-20T04:08:53;11.13;;;6.53;;
56233;SDS011;42141;53.240;6.580;2022-11-20T04:13:51;9.77;;;6.35;;
56233;SDS011;42141;53.240;6.580;2022-11-20T04:16:18;10.95;;;6.97;;
56233;SDS011;42141;53.240;6.580;2022-11-20T04:18:44;10.82;;;7.10;;
56233;SDS011;42141;53.240;6.580;2022-11-20T04:21:10;10.23;;;6.50;;
56233;SDS011;42141;53.240;6.580;2022-11-20T04:23:36;11.77;;;6.60;;
56233;SDS011;42141;53.240;6.580;2022-11-20T04:26:06;11.27;;;6.57;;
56233;SDS011;42141;53.240;6.580;2022-11-20T04:28:33;11.52;;;6.75;;
56233;SDS011;42141;53.240;6.580;2022-11-20T04:31:06;11.88;;;7.18;;
56233;SDS011;42141;53.240;6.580;2022-11-20T04:33:37;9.05;;;6.32;;
56233;SDS011;42141;53.240;6.580;2022-11-20T04:36:04;10.80;;;7.13;;
56233;SDS011;42141;53.240;6.580;2022-11-20T04:38:31;10.05;;;6.32;;
56233;SDS011;42141;53.240;6.580;2022-11-20T04:40:58;11.55;;;6.88;;
56233;SDS011;42141;53.240;6.580;2022-11-20T04:43:27;13.35;;;7.57;;
56233;SDS011;42141;53.240;6.580;2022-11-20T04:45:53;11.48;;;7.03;;
56233;SDS011;42141;53.240;6.580;2022-11-20T04:48:20;10.15;;;6.70;;
56233;SDS011;42141;53.240;6.580;2022-11-20T04:50:46;9.60;;;6.80;;
56233;SDS011;42141;53.240;6.580;2022-11-20T04:53:12;14.30;;;6.55;;
56233;SDS011;42141;53.240;6.580;2022-11-20T04:55:37;11.38;;;7.43;;
56233;SDS011;42141;53.240;6.580;2022-11-20T04:58:03;11.75;;;6.80;;
56233;SDS011;42141;53.240;6.580;2022-11-20T05:00:29;10.27;;;6.70;;
56233;SDS011;42141;53.240;6.580;2022-11-20T05:02:54;9.43;;;6.10;;
56233;SDS011;42141;53.240;6.580;2022-11-20T05:05:20;9.10;;;6.57;;
56233;SDS011;42141;53.240;6.580;2022-11-20T05:07:46;9.55;;;5.78;;
56233;SDS011;42141;53.240;6.580;2022-11-20T05:10:11;13.20;;;7.25;;
56233;SDS011;42141;53.240;6.580;2022-11-20T05:12:37;9.15;;;5.82;;
56233;SDS011;42141;53.240;6.580;2022-11-20T05:15:03;11.18;;;6.97;;
56233;SDS011;42141;53.240;6.580;2022-11-20T05:17:29;10.57;;;6.82;;
56233;SDS011;42141;53.240;6.580;2022-11-20T05:19:54;11.77;;;7.38;;
56233;SDS011;42141;53.240;6.580;2022-11-20T05:22:20;10.90;;;5.97;;
56233;SDS011;42141;53.240;6.580;2022-11-20T05:24:46;11.65;;;7.53;;
56233;SDS011;42141;53.240;6.580;2022-11-20T05:27:11;8.25;;;6.72;;
56233;SDS011;42141;53.240;6.580;2022-11-20T05:29:37;14.85;;;8.25;;
56233;SDS011;42141;53.240;6.580;2022-11-20T05:32:03;11.95;;;7.20;;
56233;SDS011;42141;53.240;6.580;2022-11-20T05:34:30;10.93;;;7.13;;
56233;SDS011;42141;53.240;6.580;2022-11-20T05:36:56;10.73;;;7.32;;
56233;SDS011;42141;53.240;6.580;2022-11-20T05:39:22;11.02;;;6.88;;
56233;SDS011;42141;53.240;6.580;2022-11-20T05:41:47;12.00;;;7.32;;
56233;SDS011;42141;53.240;6.580;2022-11-20T05:44:33;12.20;;;7.10;;
56233;SDS011;42141;53.240;6.580;2022-11-20T05:46:59;12.55;;;7.68;;
56233;SDS011;42141;53.240;6.580;2022-11-20T05:49:24;11.35;;;6.63;;
56233;SDS011;42141;53.240;6.580;2022-11-20T05:51:50;10.65;;;7.20;;
56233;SDS011;42141;53.240;6.580;2022-11-20T05:54:15;14.82;;;7.07;;
56233;SDS011;42141;53.240;6.580;2022-11-20T05:56:41;8.80;;;6.43;;
56233;SDS011;42141;53.240;6.580;2022-11-20T05:59:07;11.63;;;7.15;;
56233;SDS011;42141;53.240;6.580;2022-11-20T06:01:33;10.93;;;6.75;;
56233;SDS011;42141;53.240;6.580;2022-11-20T06:03:58;13.75;;;6.82;;
56233;SDS011;42141;53.240;6.580;2022-11-20T06:06:24;12.13;;;7.25;;
56233;SDS011;42141;53.240;6.580;2022-11-20T06:08:50;12.73;;;7.55;;
56233;SDS011;42141;53.240;6.580;2022-11-20T06:11:16;9.45;;;6.22;;
56233;SDS011;42141;53.240;6.580;2022-11-20T06:13:42;12.90;;;7.05;;
56233;SDS011;42141;53.240;6.580;2022-11-20T06:16:09;11.68;;;7.13;;
56233;SDS011;42141;53.240;6.580;2022-11-20T06:18:36;10.88;;;6.05;;
56233;SDS011;42141;53.240;6.580;2022-11-20T06:21:06;10.38;;;6.75;;
56233;SDS011;42141;53.240;6.580;2022-11-20T06:23:39;10.90;;;6.25;;
56233;SDS011;42141;53.240;6.580;2022-11-20T06:26:07;10.63;;;6.10;;
56233;SDS011;42141;53.240;6.580;2022-11-20T06:28:34;9.13;;;6.35;;
56233;SDS011;42141;53.240;6.580;2022-11-20T06:31:00;12.32;;;6.57;;
56233;SDS011;42141;53.240;6.580;2022-11-20T06:33:26;9.52;;;6.00;;
56233;SDS011;42141;53.240;6.580;2022-11-20T06:35:52;9.18;;;5.93;;
56233;SDS011;42141;53.240;6.580;2022-11-20T06:38:20;10.57;;;6.68;;
56233;SDS011;42141;53.240;6.580;2022-11-20T06:40:46;12.27;;;5.90;;
56233;SDS011;42141;53.240;6.580;2022-11-20T06:43:12;9.35;;;6.38;;
56233;SDS011;42141;53.240;6.580;2022-11-20T06:45:37;10.40;;;6.88;;
56233;SDS011;42141;53.240;6.580;2022-11-20T06:48:03;9.07;;;6.43;;
56233;SDS011;42141;53.240;6.580;2022-11-20T06:50:29;12.50;;;6.38;;
56233;SDS011;42141;53.240;6.580;2022-11-20T06:52:54;9.30;;;6.13;;
56233;SDS011;42141;53.240;6.580;2022-11-20T06:55:20;10.52;;;6.53;;
56233;SDS011;42141;53.240;6.580;2022-11-20T06:57:46;10.30;;;6.25;;
56233;SDS011;42141;53.240;6.580;2022-11-20T07:00:12;11.05;;;7.18;;
56233;SDS011;42141;53.240;6.580;2022-11-20T07:02:38;11.82;;;6.38;;
56233;SDS011;42141;53.240;6.580;2022-11-20T07:05:04;9.48;;;6.50;;
56233;SDS011;42141;53.240;6.580;2022-11-20T07:07:30;8.85;;;6.03;;
56233;SDS011;42141;53.240;6.580;2022-11-20T07:09:55;10.95;;;6.72;;
56233;SDS011;42141;53.240;6.580;2022-11-20T07:12:21;10.10;;;6.47;;
56233;SDS011;42141;53.240;6.580;2022-11-20T07:14:47;9.75;;;6.78;;
56233;SDS011;42141;53.240;6.580;2022-11-20T07:17:12;10.30;;;6.93;;
56233;SDS011;42141;53.240;6.580;2022-11-20T07:19:38;11.60;;;6.70;;
56233;SDS011;42141;53.240;6.580;2022-11-20T07:22:04;13.18;;;7.30;;
56233;SDS011;42141;53.240;6.580;2022-11-20T07:24:29;10.82;;;6.00;;
56233;SDS011;42141;53.240;6.580;2022-11-20T07:26:55;11.38;;;7.13;;
56233;SDS011;42141;53.240;6.580;2022-11-20T07:29:20;12.20;;;8.10;;
56233;SDS011;42141;53.240;6.580;2022-11-20T07:31:46;14.10;;;7.07;;
56233;SDS011;42141;53.240;6.580;2022-11-20T07:34:12;9.63;;;7.13;;
56233;SDS011;42141;53.240;6.580;2022-11-20T07:36:38;10.13;;;6.57;;
56233;SDS011;42141;53.240;6.580;2022-11-20T07:39:04;11.95;;;6.82;;
56233;SDS011;42141;53.240;6.580;2022-11-20T07:41:29;13.88;;;7.85;;
56233;SDS011;42141;53.240;6.580;2022-11-20T07:43:55;11.35;;;7.00;;
56233;SDS011;42141;53.240;6.580;2022-11-20T07:46:21;10.07;;;6.75;;
56233;SDS011;42141;53.240;6.580;2022-11-20T07:48:46;12.48;;;7.45;;
56233;SDS011;42141;53.240;6.580;2022-11-20T07:51:12;11.13;;;7.32;;
56233;SDS011;42141;53.240;6.580;2022-11-20T07:53:38;13.27;;;7.53;;
56233;SDS011;42141;53.240;6.580;2022-11-20T07:56:04;10.65;;;7.38;;
56233;SDS011;42141;53.240;6.580;2022-11-20T07:58:30;11.27;;;6.82;;
56233;SDS011;42141;53.240;6.580;2022-11-20T08:00:58;10.35;;;6.40;;
56233;SDS011;42141;53.240;6.580;2022-11-20T08:03:28;12.77;;;6.97;;
56233;SDS011;42141;53.240;6.580;2022-11-20T08:05:54;11.75;;;7.20;;
56233;SDS011;42141;53.240;6.580;2022-11-20T08:08:28;9.90;;;6.13;;
56233;SDS011;42141;53.240;6.580;2022-11-20T08:10:56;9.70;;;6.60;;
56233;SDS011;42141;53.240;6.580;2022-11-20T08:13:42;9.48;;;6.55;;
56233;SDS011;42141;53.240;6.580;2022-11-20T08:16:26;10.95;;;6.82;;
56233;SDS011;42141;53.240;6.580;2022-11-20T08:18:51;10.43;;;7.03;;
56233;SDS011;42141;53.240;6.580;2022-11-20T08:21:17;10.70;;;6.60;;
56233;SDS011;42141;53.240;6.580;2022-11-20T08:23:43;10.82;;;6.75;;
56233;SDS011;42141;53.240;6.580;2022-11-20T08:26:08;10.60;;;7.35;;
56233;SDS011;42141;53.240;6.580;2022-11-20T08:28:34;14.90;;;7.10;;
56233;SDS011;42141;53.240;6.580;2022-11-20T08:31:00;10.20;;;7.25;;
56233;SDS011;42141;53.240;6.580;2022-11-20T08:33:27;10.35;;;6.75;;
56233;SDS011;42141;53.240;6.580;2022-11-20T08:35:53;15.10;;;7.38;;
56233;SDS011;42141;53.240;6.580;2022-11-20T08:38:19;12.15;;;7.40;;
56233;SDS011;42141;53.240;6.580;2022-11-20T08:40:44;9.98;;;7.03;;
56233;SDS011;42141;53.240;6.580;2022-11-20T08:43:32;14.88;;;9.20;;
56233;SDS011;42141;53.240;6.580;2022-11-20T08:45:58;10.88;;;7.32;;
56233;SDS011;42141;53.240;6.580;2022-11-20T08:48:24;9.80;;;6.25;;
56233;SDS011;42141;53.240;6.580;2022-11-20T08:50:49;8.43;;;5.55;;
56233;SDS011;42141;53.240;6.580;2022-11-20T08:53:15;10.32;;;6.53;;
56233;SDS011;42141;53.240;6.580;2022-11-20T08:55:41;11.98;;;6.63;;
56233;SDS011;42141;53.240;6.580;2022-11-20T08:58:06;9.93;;;6.95;;
56233;SDS011;42141;53.240;6.580;2022-11-20T09:00:32;12.32;;;7.30;;
56233;SDS011;42141;53.240;6.580;2022-11-20T09:02:58;10.27;;;6.70;;
56233;SDS011;42141;53.240;6.580;2022-11-20T09:05:25;12.73;;;7.53;;
56233;SDS011;42141;53.240;6.580;2022-11-20T09:07:52;12.07;;;7.60;;
56233;SDS011;42141;53.240;6.580;2022-11-20T09:10:21;8.90;;;6.05;;
56233;SDS011;42141;53.240;6.580;2022-11-20T09:12:50;11.48;;;6.30;;
56233;SDS011;42141;53.240;6.580;2022-11-20T09:15:17;10.82;;;6.93;;
56233;SDS011;42141;53.240;6.580;2022-11-20T09:17:49;11.20;;;6.88;;
56233;SDS011;42141;53.240;6.580;2022-11-20T09:20:16;10.40;;;6.63;;
56233;SDS011;42141;53.240;6.580;2022-11-20T09:22:42;10.10;;;6.80;;
56233;SDS011;42141;53.240;6.580;2022-11-20T09:25:08;10.20;;;6.88;;
56233;SDS011;42141;53.240;6.580;2022-11-20T09:27:33;12.52;;;6.90;;
56233;SDS011;42141;53.240;6.580;2022-11-20T09:30:00;12.52;;;7.47;;
56233;SDS011;42141;53.240;6.580;2022-11-20T09:32:27;10.88;;;7.57;;
56233;SDS011;42141;53.240;6.580;2022-11-20T09:34:52;12.38;;;7.32;;
56233;SDS011;42141;53.240;6.580;2022-11-20T09:37:18;9.23;;;6.75;;
56233;SDS011;42141;53.240;6.580;2022-11-20T09:39:44;10.88;;;6.90;;
56233;SDS011;42141;53.240;6.580;2022-11-20T09:42:25;9.32;;;6.72;;
56233;SDS011;42141;53.240;6.580;2022-11-20T09:55:57;12.23;;;7.40;;
56233;SDS011;42141;53.240;6.580;2022-11-20T10:01:32;11.52;;;6.95;;
56233;SDS011;42141;53.240;6.580;2022-11-20T10:04:04;8.68;;;6.63;;
56233;SDS011;42141;53.240;6.580;2022-11-20T10:09:29;10.82;;;6.95;;
56233;SDS011;42141;53.240;6.580;2022-11-20T10:20:16;11.73;;;6.78;;
56233;SDS011;42141;53.240;6.580;2022-11-20T10:28:20;9.73;;;6.78;;
56233;SDS011;42141;53.240;6.580;2022-11-20T10:31:12;12.93;;;6.57;;
56233;SDS011;42141;53.240;6.580;2022-11-20T10:33:48;9.85;;;6.13;;
56233;SDS011;42141;53.240;6.580;2022-11-20T10:36:19;9.43;;;6.25;;
56233;SDS011;42141;53.240;6.580;2022-11-20T10:41:43;10.02;;;5.32;;
56233;SDS011;42141;53.240;6.580;2022-11-20T10:44:19;11.82;;;6.78;;
56233;SDS011;42141;53.240;6.580;2022-11-20T10:47:05;9.93;;;6.38;;
56233;SDS011;42141;53.240;6.580;2022-11-20T10:49:35;9.82;;;6.35;;
56233;SDS011;42141;53.240;6.580;2022-11-20T11:00:10;9.80;;;6.30;;
56233;SDS011;42141;53.240;6.580;2022-11-20T11:02:42;9.10;;;6.18;;
56233;SDS011;42141;53.240;6.580;2022-11-20T11:05:23;10.40;;;6.32;;
56233;SDS011;42141;53.240;6.580;2022-11-20T11:07:56;9.27;;;5.78;;
56233;SDS011;42141;53.240;6.580;2022-11-20T11:13:22;12.05;;;5.53;;
56233;SDS011;42141;53.240;6.580;2022-11-20T11:15:50;11.30;;;6.32;;
56233;SDS011;42141;53.240;6.580;2022-11-20T11:18:26;8.32;;;5.72;;
56233;SDS011;42141;53.240;6.580;2022-11-20T11:20:55;9.43;;;6.03;;
56233;SDS011;42141;53.240;6.580;2022-11-20T11:23:43;8.93;;;5.95;;
56233;SDS011;42141;53.240;6.580;2022-11-20T11:26:18;8.60;;;5.95;;
56233;SDS011;42141;53.240;6.580;2022-11-20T11:28:55;8.73;;;5.78;;
56233;SDS011;42141;53.240;6.580;2022-11-20T11:31:43;9.52;;;5.75;;
56233;SDS011;42141;53.240;6.580;2022-11-20T11:34:16;8.15;;;5.43;;
56233;SDS011;42141;53.240;6.580;2022-11-20T11:36:49;8.32;;;5.80;;
56233;SDS011;42141;53.240;6.580;2022-11-20T11:39:21;7.70;;;5.35;;
56233;SDS011;42141;53.240;6.580;2022-11-20T11:41:48;9.02;;;6.05;;
56233;SDS011;42141;53.240;6.580;2022-11-20T11:44:15;8.50;;;5.55;;
56233;SDS011;42141;53.240;6.580;2022-11-20T11:47:03;8.40;;;5.18;;
56233;SDS011;42141;53.240;6.580;2022-11-20T11:49:31;8.82;;;5.32;;
56233;SDS011;42141;53.240;6.580;2022-11-20T11:52:16;9.05;;;5.78;;
56233;SDS011;42141;53.240;6.580;2022-11-20T11:55:04;8.57;;;5.95;;
56233;SDS011;42141;53.240;6.580;2022-11-20T12:05:29;11.38;;;5.75;;
56233;SDS011;42141;53.240;6.580;2022-11-20T12:08:18;8.55;;;5.10;;
56233;SDS011;42141;53.240;6.580;2022-11-20T12:13:52;10.52;;;5.55;;
56233;SDS011;42141;53.240;6.580;2022-11-20T12:16:23;7.45;;;5.13;;
56233;SDS011;42141;53.240;6.580;2022-11-20T12:18:50;8.00;;;5.45;;
56233;SDS011;42141;53.240;6.580;2022-11-20T12:38:20;7.30;;;4.28;;
56233;SDS011;42141;53.240;6.580;2022-11-20T12:44:16;5.63;;;4.20;;
56233;SDS011;42141;53.240;6.580;2022-11-20T12:53:05;6.60;;;3.38;;
56233;SDS011;42141;53.240;6.580;2022-11-20T13:01:40;5.75;;;3.45;;
56233;SDS011;42141;53.240;6.580;2022-11-20T13:04:39;5.82;;;3.30;;
56233;SDS011;42141;53.240;6.580;2022-11-20T13:07:15;5.20;;;2.80;;
56233;SDS011;42141;53.240;6.580;2022-11-20T13:09:46;6.05;;;3.60;;
56233;SDS011;42141;53.240;6.580;2022-11-20T13:12:15;6.20;;;3.58;;
56233;SDS011;42141;53.240;6.580;2022-11-20T13:15:06;14.57;;;3.72;;
56233;SDS011;42141;53.240;6.580;2022-11-20T13:17:58;5.78;;;3.50;;
56233;SDS011;42141;53.240;6.580;2022-11-20T13:20:26;6.38;;;3.17;;
56233;SDS011;42141;53.240;6.580;2022-11-20T13:22:53;5.32;;;3.35;;
56233;SDS011;42141;53.240;6.580;2022-11-20T13:25:32;4.43;;;2.70;;
56233;SDS011;42141;53.240;6.580;2022-11-20T13:28:26;5.25;;;3.13;;
56233;SDS011;42141;53.240;6.580;2022-11-20T13:30:51;7.07;;;3.63;;
56233;SDS011;42141;53.240;6.580;2022-11-20T13:36:02;6.53;;;3.95;;
56233;SDS011;42141;53.240;6.580;2022-11-20T13:38:40;6.93;;;3.45;;
56233;SDS011;42141;53.240;6.580;2022-11-20T13:41:11;5.57;;;3.15;;
56233;SDS011;42141;53.240;6.580;2022-11-20T13:43:58;4.47;;;2.95;;
56233;SDS011;42141;53.240;6.580;2022-11-20T13:49:07;6.18;;;3.13;;
56233;SDS011;42141;53.240;6.580;2022-11-20T13:51:43;4.97;;;3.13;;
56233;SDS011;42141;53.240;6.580;2022-11-20T13:54:16;5.13;;;3.28;;
56233;SDS011;42141;53.240;6.580;2022-11-20T13:56:59;7.63;;;3.70;;
56233;SDS011;42141;53.240;6.580;2022-11-20T14:02:20;5.00;;;3.42;;
56233;SDS011;42141;53.240;6.580;2022-11-20T14:04:49;7.70;;;3.95;;
56233;SDS011;42141;53.240;6.580;2022-11-20T14:07:18;5.45;;;3.60;;
56233;SDS011;42141;53.240;6.580;2022-11-20T14:09:54;5.50;;;3.60;;
56233;SDS011;42141;53.240;6.580;2022-11-20T14:12:22;6.10;;;3.03;;
56233;SDS011;42141;53.240;6.580;2022-11-20T14:14:58;7.15;;;3.58;;
56233;SDS011;42141;53.240;6.580;2022-11-20T14:17:34;5.90;;;3.72;;
56233;SDS011;42141;53.240;6.580;2022-11-20T14:20:02;5.95;;;3.85;;
56233;SDS011;42141;53.240;6.580;2022-11-20T14:22:30;4.90;;;3.20;;
56233;SDS011;42141;53.240;6.580;2022-11-20T14:25:01;4.93;;;3.42;;
56233;SDS011;42141;53.240;6.580;2022-11-20T14:27:40;5.38;;;3.35;;
56233;SDS011;42141;53.240;6.580;2022-11-20T14:30:26;4.60;;;3.30;;
56233;SDS011;42141;53.240;6.580;2022-11-20T14:33:04;5.97;;;3.70;;
56233;SDS011;42141;53.240;6.580;2022-11-20T14:35:31;6.38;;;4.30;;
56233;SDS011;42141;53.240;6.580;2022-11-20T14:38:02;7.25;;;4.40;;
56233;SDS011;42141;53.240;6.580;2022-11-20T14:40:29;5.65;;;3.78;;
56233;SDS011;42141;53.240;6.580;2022-11-20T14:43:01;7.78;;;4.40;;
56233;SDS011;42141;53.240;6.580;2022-11-20T14:45:40;7.72;;;4.40;;
56233;SDS011;42141;53.240;6.580;2022-11-20T14:48:08;7.35;;;4.70;;
56233;SDS011;42141;53.240;6.580;2022-11-20T14:50:35;6.78;;;3.95;;
56233;SDS011;42141;53.240;6.580;2022-11-20T14:53:03;7.28;;;4.40;;
56233;SDS011;42141;53.240;6.580;2022-11-20T14:55:36;6.80;;;4.35;;
56233;SDS011;42141;53.240;6.580;2022-11-20T14:58:04;7.53;;;4.13;;
56233;SDS011;42141;53.240;6.580;2022-11-20T15:00:32;5.68;;;3.63;;
56233;SDS011;42141;53.240;6.580;2022-11-20T15:02:58;4.72;;;3.65;;
56233;SDS011;42141;53.240;6.580;2022-11-20T15:05:25;7.25;;;4.43;;
56233;SDS011;42141;53.240;6.580;2022-11-20T15:08:12;6.90;;;4.63;;
56233;SDS011;42141;53.240;6.580;2022-11-20T15:10:38;8.35;;;4.90;;
56233;SDS011;42141;53.240;6.580;2022-11-20T15:13:11;7.10;;;4.03;;
56233;SDS011;42141;53.240;6.580;2022-11-20T15:15:42;9.38;;;4.63;;
56233;SDS011;42141;53.240;6.580;2022-11-20T15:18:14;9.35;;;4.53;;
56233;SDS011;42141;53.240;6.580;2022-11-20T15:20:42;7.68;;;4.35;;
56233;SDS011;42141;53.240;6.580;2022-11-20T15:23:12;7.60;;;4.78;;
56233;SDS011;42141;53.240;6.580;2022-11-20T15:25:45;8.60;;;4.68;;
56233;SDS011;42141;53.240;6.580;2022-11-20T15:28:15;7.55;;;4.82;;
56233;SDS011;42141;53.240;6.580;2022-11-20T15:30:44;5.45;;;3.90;;
56233;SDS011;42141;53.240;6.580;2022-11-20T15:33:11;8.02;;;4.70;;
56233;SDS011;42141;53.240;6.580;2022-11-20T15:35:38;8.20;;;4.93;;
56233;SDS011;42141;53.240;6.580;2022-11-20T15:38:04;10.50;;;5.57;;
56233;SDS011;42141;53.240;6.580;2022-11-20T15:40:30;9.48;;;5.10;;
56233;SDS011;42141;53.240;6.580;2022-11-20T15:42:56;9.55;;;5.18;;
56233;SDS011;42141;53.240;6.580;2022-11-20T15:45:44;8.45;;;5.28;;
56233;SDS011;42141;53.240;6.580;2022-11-20T15:48:32;8.15;;;5.35;;
56233;SDS011;42141;53.240;6.580;2022-11-20T15:53:35;9.90;;;5.80;;
56233;SDS011;42141;53.240;6.580;2022-11-20T15:56:02;9.82;;;5.60;;
56233;SDS011;42141;53.240;6.580;2022-11-20T15:58:28;8.77;;;5.55;;
56233;SDS011;42141;53.240;6.580;2022-11-20T16:00:54;9.85;;;6.55;;
56233;SDS011;42141;53.240;6.580;2022-11-20T16:03:20;8.60;;;5.47;;
56233;SDS011;42141;53.240;6.580;2022-11-20T16:05:46;9.40;;;5.18;;
56233;SDS011;42141;53.240;6.580;2022-11-20T16:08:11;8.63;;;5.68;;
56233;SDS011;42141;53.240;6.580;2022-11-20T16:10:38;9.65;;;5.85;;
56233;SDS011;42141;53.240;6.580;2022-11-20T16:13:04;11.43;;;6.05;;
56233;SDS011;42141;53.240;6.580;2022-11-20T16:15:57;10.73;;;5.97;;
56233;SDS011;42141;53.240;6.580;2022-11-20T16:18:24;10.05;;;6.60;;
56233;SDS011;42141;53.240;6.580;2022-11-20T16:20:51;14.25;;;7.38;;
56233;SDS011;42141;53.240;6.580;2022-11-20T16:23:18;12.60;;;7.03;;
56233;SDS011;42141;53.240;6.580;2022-11-20T16:25:45;11.73;;;7.35;;
56233;SDS011;42141;53.240;6.580;2022-11-20T16:28:11;9.77;;;6.65;;
56233;SDS011;42141;53.240;6.580;2022-11-20T16:30:37;13.68;;;7.03;;
56233;SDS011;42141;53.240;6.580;2022-11-20T16:33:03;12.85;;;7.10;;
56233;SDS011;42141;53.240;6.580;2022-11-20T16:35:29;10.65;;;6.10;;
56233;SDS011;42141;53.240;6.580;2022-11-20T16:37:56;11.35;;;6.78;;
56233;SDS011;42141;53.240;6.580;2022-11-20T16:40:23;10.43;;;6.85;;
56233;SDS011;42141;53.240;6.580;2022-11-20T16:42:49;11.15;;;6.95;;